createdAt,value
2019-04-21T00:00:10.310Z,12.53
2019-04-21T00:02:38.089Z,14.15
2019-04-21T00:05:25.950Z,12.00
2019-04-21T00:08:01.238Z,10.15
2019-04-21T00:10:27.214Z,17.23
2019-04-21T00:12:53.470Z,10.15
2019-04-21T00:15:18.022Z,10.65
2019-04-21T00:17:37.258Z,11.88
2019-04-21T00:20:17.639Z,13.48
2019-04-21T00:22:47.957Z,11.33
2019-04-21T00:25:28.732Z,11.35
2019-04-21T00:28:04.915Z,10.58
2019-04-21T00:30:39.860Z,14.68
2019-04-21T00:33:00.185Z,13.40
2019-04-21T00:35:25.868Z,11.10
2019-04-21T00:38:13.663Z,11.57
2019-04-21T00:40:48.014Z,12.25
2019-04-21T00:43:08.974Z,12.55
2019-04-21T00:45:39.232Z,9.20
2019-04-21T00:48:17.582Z,12.33
2019-04-21T00:51:03.419Z,11.60
2019-04-21T00:53:31.057Z,11.88
2019-04-21T00:55:59.040Z,12.85
2019-04-21T00:58:30.081Z,12.25
2019-04-21T01:01:00.446Z,13.38
2019-04-21T01:03:47.394Z,15.25
2019-04-21T01:05:56.915Z,16.80
2019-04-21T01:08:25.270Z,14.80
2019-04-21T01:10:53.179Z,16.90
2019-04-21T01:13:36.255Z,15.10
2019-04-21T01:16:00.395Z,15.03
2019-04-21T01:18:32.885Z,15.03
2019-04-21T01:20:43.922Z,14.75
2019-04-21T01:23:14.684Z,13.75
2019-04-21T01:25:55.438Z,18.05
2019-04-21T01:28:29.243Z,18.92
2019-04-21T01:31:03.463Z,15.05
2019-04-21T01:33:41.245Z,20.70
2019-04-21T01:36:04.174Z,14.23
2019-04-21T01:38:39.790Z,17.40
2019-04-21T01:41:13.225Z,15.83
2019-04-21T01:43:39.482Z,19.05
2019-04-21T01:46:09.307Z,14.23
2019-04-21T01:48:34.199Z,15.48
2019-04-21T01:51:10.036Z,17.12
2019-04-21T01:54:03.478Z,17.48
2019-04-21T01:56:40.147Z,15.00
2019-04-21T01:59:02.543Z,17.65
2019-04-21T02:01:42.429Z,16.55
2019-04-21T02:04:22.716Z,16.32
2019-04-21T02:06:48.898Z,14.90
2019-04-21T02:09:09.783Z,20.12
2019-04-21T02:11:50.926Z,19.23
2019-04-21T02:14:23.748Z,17.50
2019-04-21T02:16:49.655Z,15.95
2019-04-21T02:19:16.593Z,20.75
2019-04-21T02:24:31.151Z,17.75
2019-04-21T02:26:57.277Z,17.25
2019-04-21T02:29:30.379Z,13.55
2019-04-21T02:32:11.014Z,15.70
2019-04-21T02:34:43.010Z,15.88
2019-04-21T02:37:30.840Z,15.08
2019-04-21T02:39:46.709Z,19.62
2019-04-21T02:44:46.769Z,15.03
2019-04-21T02:47:16.903Z,16.80
2019-04-21T02:52:20.057Z,14.83
2019-04-21T02:57:18.441Z,18.87
2019-04-21T03:08:22.822Z,16.48
2019-04-21T03:13:14.018Z,19.15
2019-04-21T03:20:44.278Z,19.32
2019-04-21T03:23:23.821Z,14.90
2019-04-21T03:25:59.050Z,16.87
2019-04-21T03:28:22.210Z,19.65
2019-04-21T03:38:29.299Z,17.67
2019-04-21T03:40:47.379Z,18.40
2019-04-21T03:45:51.474Z,16.87
2019-04-21T03:48:31.910Z,17.80
2019-04-21T03:50:56.331Z,18.50
2019-04-21T03:53:24.907Z,19.55
2019-04-21T03:58:35.136Z,21.42
2019-04-21T04:01:19.755Z,17.55
2019-04-21T04:06:33.998Z,18.62
2019-04-21T04:09:21.446Z,17.05
2019-04-21T04:11:55.168Z,19.07
2019-04-21T04:17:02.473Z,17.92
2019-04-21T04:19:27.053Z,19.52
2019-04-21T04:24:22.190Z,19.80
2019-04-21T04:27:02.546Z,23.50
2019-04-21T04:29:22.445Z,17.55
2019-04-21T04:34:47.766Z,20.15
2019-04-21T04:37:23.599Z,18.57
2019-04-21T04:40:02.871Z,26.25
2019-04-21T04:42:41.636Z,19.30
2019-04-21T04:47:33.413Z,20.92
2019-04-21T04:49:59.363Z,17.82
2019-04-21T04:52:38.472Z,14.33
2019-04-21T04:55:07.658Z,14.55
2019-04-21T04:57:49.229Z,17.40
2019-04-21T05:12:43.783Z,17.15
2019-04-21T05:15:19.268Z,17.40
2019-04-21T05:22:45.936Z,16.57
2019-04-21T05:25:08.546Z,18.95
2019-04-21T05:27:38.560Z,18.48
2019-04-21T05:30:27.079Z,24.63
2019-04-21T05:33:06.960Z,19.60
2019-04-21T05:35:49.266Z,21.37
2019-04-21T05:38:21.768Z,20.88
2019-04-21T05:40:52.336Z,22.77
2019-04-21T05:43:32.478Z,20.05
2019-04-21T05:46:19.673Z,23.65
2019-04-21T05:51:03.559Z,22.22
2019-04-21T05:53:35.912Z,20.20
2019-04-21T05:56:09.964Z,21.52
2019-04-21T05:58:39.171Z,22.90
2019-04-21T06:06:20.494Z,21.30
2019-04-21T06:08:43.176Z,25.92
2019-04-21T06:11:19.173Z,20.23
2019-04-21T06:13:58.039Z,22.25
2019-04-21T06:16:24.172Z,23.52
2019-04-21T06:18:53.250Z,23.92
2019-04-21T06:21:23.348Z,23.42
2019-04-21T06:23:59.233Z,25.50
2019-04-21T06:28:59.291Z,22.65
2019-04-21T06:34:06.815Z,24.72
2019-04-21T06:37:19.218Z,21.85
2019-04-21T06:39:40.431Z,25.17
2019-04-21T06:42:05.276Z,23.90
2019-04-21T06:44:40.560Z,24.85
2019-04-21T06:47:17.590Z,29.23
2019-04-21T06:49:41.109Z,29.50
2019-04-21T06:52:22.184Z,27.95
2019-04-21T06:54:41.055Z,25.80
2019-04-21T06:57:11.759Z,25.62
2019-04-21T06:59:38.983Z,21.68
2019-04-21T07:04:46.918Z,24.87
2019-04-21T07:07:14.411Z,19.87
2019-04-21T07:09:45.391Z,24.72
2019-04-21T07:12:13.692Z,24.50
2019-04-21T07:14:44.119Z,26.20
2019-04-21T07:17:22.880Z,24.70
2019-04-21T07:19:48.067Z,27.48
2019-04-21T07:22:24.689Z,30.05
2019-04-21T07:24:48.201Z,25.08
2019-04-21T07:27:26.978Z,23.80
2019-04-21T07:29:56.615Z,22.62
2019-04-21T07:32:20.809Z,22.65
2019-04-21T07:34:54.587Z,21.12
2019-04-21T07:37:23.904Z,26.10
2019-04-21T07:39:54.814Z,23.67
2019-04-21T07:42:25.403Z,20.43
2019-04-21T07:44:55.320Z,24.23
2019-04-21T07:47:34.433Z,24.35
2019-04-21T07:50:14.876Z,21.82
2019-04-21T07:53:05.054Z,24.40
2019-04-21T07:57:55.935Z,23.65
2019-04-21T08:03:05.211Z,19.73
2019-04-21T08:05:35.248Z,20.05
2019-04-21T08:08:21.114Z,20.48
2019-04-21T08:11:32.660Z,23.65
2019-04-21T08:15:14.588Z,25.00
2019-04-21T08:18:11.760Z,20.75
2019-04-21T08:21:28.040Z,21.97
2019-04-21T08:24:35.270Z,20.45
2019-04-21T08:28:01.444Z,21.12
2019-04-21T08:31:13.986Z,23.40
2019-04-21T08:33:51.406Z,19.90
2019-04-21T08:38:51.505Z,20.97
2019-04-21T08:41:12.491Z,24.70
2019-04-21T08:43:48.111Z,24.37
2019-04-21T08:46:20.240Z,20.52
2019-04-21T08:48:52.581Z,19.52
2019-04-21T08:56:43.188Z,21.62
2019-04-21T08:59:17.863Z,26.55
2019-04-21T09:01:55.547Z,22.80
2019-04-21T09:04:24.445Z,20.37
2019-04-21T09:09:31.973Z,21.05
2019-04-21T09:12:01.638Z,21.15
2019-04-21T09:14:33.785Z,17.77
2019-04-21T09:16:56.398Z,19.02
2019-04-21T09:19:44.398Z,16.52
2019-04-21T09:22:03.991Z,18.10
2019-04-21T09:24:33.632Z,17.45
2019-04-21T09:27:07.138Z,19.37
2019-04-21T09:29:25.671Z,17.37
2019-04-21T09:31:48.020Z,15.78
2019-04-21T09:34:24.859Z,18.02
2019-04-21T09:36:53.137Z,17.20
2019-04-21T09:39:24.103Z,17.05
2019-04-21T09:41:54.490Z,16.62
2019-04-21T09:44:27.558Z,15.85
2019-04-21T09:46:54.878Z,20.80
2019-04-21T09:49:25.950Z,16.27
2019-04-21T09:51:52.998Z,18.48
2019-04-21T09:54:27.789Z,17.50
2019-04-21T09:56:58.616Z,16.27
2019-04-21T09:59:28.026Z,18.60
2019-04-21T10:02:06.673Z,16.90
2019-04-21T10:04:26.673Z,16.30
2019-04-21T10:06:56.277Z,15.68
2019-04-21T10:09:26.442Z,13.80
2019-04-21T10:11:55.049Z,12.63
2019-04-21T10:14:26.423Z,12.98
2019-04-21T10:17:15.087Z,12.53
2019-04-21T10:19:46.374Z,14.13
2019-04-21T10:22:16.904Z,13.60
2019-04-21T10:24:46.709Z,12.43
2019-04-21T10:27:19.032Z,12.98
2019-04-21T10:29:47.262Z,12.70
2019-04-21T10:32:19.712Z,15.80
2019-04-21T10:34:49.609Z,11.22
2019-04-21T10:37:18.877Z,11.43
2019-04-21T10:39:47.668Z,12.78
2019-04-21T10:42:17.366Z,13.55
2019-04-21T10:44:47.187Z,14.73
2019-04-21T10:47:16.574Z,11.00
2019-04-21T10:49:46.514Z,12.23
2019-04-21T10:52:28.920Z,10.48
2019-04-21T10:55:20.799Z,10.13
2019-04-21T10:57:32.574Z,8.68
2019-04-21T11:00:08.366Z,10.45
2019-04-21T11:02:44.223Z,10.90
2019-04-21T11:05:12.828Z,12.93
2019-04-21T11:08:00.913Z,9.08
2019-04-21T11:10:20.345Z,10.25
2019-04-21T11:12:50.668Z,11.75
2019-04-21T11:15:23.225Z,9.75
2019-04-21T11:17:52.323Z,9.25
2019-04-21T11:20:22.874Z,11.25
2019-04-21T11:22:51.844Z,8.43
2019-04-21T11:25:20.420Z,10.63
2019-04-21T11:27:49.343Z,10.40
2019-04-21T11:30:21.081Z,14.13
2019-04-21T11:32:51.143Z,8.10
2019-04-21T11:35:23.289Z,12.30
2019-04-21T11:38:07.237Z,7.92
2019-04-21T11:40:29.716Z,8.55
2019-04-21T11:42:59.723Z,10.63
2019-04-21T11:45:32.730Z,8.30
2019-04-21T11:48:10.499Z,8.38
2019-04-21T11:50:39.439Z,6.87
2019-04-21T11:53:08.321Z,9.18
2019-04-21T11:55:41.163Z,9.88
2019-04-21T11:58:09.844Z,10.35
2019-04-21T12:00:39.825Z,9.53
2019-04-21T12:03:09.229Z,7.78
2019-04-21T12:05:39.866Z,8.93
2019-04-21T12:08:21.013Z,8.85
2019-04-21T12:10:39.714Z,10.55
2019-04-21T12:13:08.454Z,9.80
2019-04-21T12:15:38.943Z,9.55
2019-04-21T12:18:08.188Z,7.92
2019-04-21T12:20:37.631Z,9.90
2019-04-21T12:23:06.831Z,9.90
2019-04-21T12:25:39.060Z,8.88
2019-04-21T12:28:08.009Z,11.30
2019-04-21T12:30:37.791Z,10.95
2019-04-21T12:33:25.489Z,11.70
2019-04-21T12:35:55.651Z,10.28
2019-04-21T12:38:36.480Z,12.23
2019-04-21T12:43:26.511Z,12.07
2019-04-21T12:45:55.870Z,12.18
2019-04-21T12:48:26.207Z,9.98
2019-04-21T12:50:55.179Z,10.45
2019-04-21T12:53:23.762Z,11.60
2019-04-21T12:55:53.895Z,10.20
2019-04-21T12:58:25.578Z,9.90
2019-04-21T13:00:56.759Z,11.43
2019-04-21T13:03:27.413Z,13.55
2019-04-21T13:05:56.070Z,10.43
2019-04-21T13:08:25.041Z,9.68
2019-04-21T13:10:56.086Z,9.83
2019-04-21T13:13:26.193Z,9.63
2019-04-21T13:15:57.602Z,10.58
2019-04-21T13:18:27.048Z,11.15
2019-04-21T13:20:56.108Z,9.78
2019-04-21T13:23:27.084Z,11.65
2019-04-21T13:25:56.140Z,8.93
2019-04-21T13:28:24.912Z,11.18
2019-04-21T13:30:56.051Z,17.25
2019-04-21T13:33:25.333Z,10.58
2019-04-21T13:35:55.135Z,10.05
2019-04-21T13:38:33.261Z,13.60
2019-04-21T13:41:31.142Z,11.75
2019-04-21T13:43:49.144Z,11.38
2019-04-21T13:46:20.559Z,9.43
2019-04-21T13:48:50.754Z,13.32
2019-04-21T13:51:19.548Z,12.25
2019-04-21T13:53:49.457Z,8.95
2019-04-21T13:56:18.495Z,10.35
2019-04-21T13:58:48.395Z,9.15
2019-04-21T14:01:18.085Z,9.88
2019-04-21T14:03:49.490Z,11.73
2019-04-21T14:06:20.487Z,9.18
2019-04-21T14:08:50.592Z,9.85
2019-04-21T14:11:20.079Z,13.48
2019-04-21T14:13:50.285Z,11.43
2019-04-21T14:16:20.306Z,9.65
2019-04-21T14:18:49.629Z,11.22
2019-04-21T14:21:18.897Z,11.57
2019-04-21T14:23:50.818Z,13.60
2019-04-21T14:26:18.401Z,12.03
2019-04-21T14:28:47.546Z,11.85
2019-04-21T14:31:17.611Z,12.18
2019-04-21T14:33:46.173Z,10.65
2019-04-21T14:36:17.210Z,11.65
2019-04-21T14:38:47.676Z,11.80
2019-04-21T14:41:16.265Z,12.85
2019-04-21T14:43:47.973Z,9.93
2019-04-21T14:46:21.768Z,10.08
2019-04-21T14:52:21.194Z,11.28
2019-04-21T14:55:12.278Z,10.72
2019-04-21T14:57:41.142Z,10.68
2019-04-21T15:00:11.209Z,11.50
2019-04-21T15:02:39.938Z,11.22
2019-04-21T15:05:11.475Z,12.28
2019-04-21T15:07:41.407Z,14.18
2019-04-21T15:10:18.012Z,14.33
2019-04-21T15:12:41.597Z,12.82
2019-04-21T15:15:10.289Z,12.63
2019-04-21T15:17:39.885Z,10.85
2019-04-21T15:20:13.510Z,11.57
2019-04-21T15:22:38.850Z,11.38
2019-04-21T15:25:08.115Z,15.35
2019-04-21T15:27:37.049Z,12.95
2019-04-21T15:30:06.954Z,12.98
2019-04-21T15:32:36.729Z,12.60
2019-04-21T15:35:06.825Z,15.83
2019-04-21T15:37:35.984Z,15.18
2019-04-21T15:40:14.976Z,13.18
2019-04-21T15:42:36.630Z,11.95
2019-04-21T15:45:06.354Z,13.48
2019-04-21T15:47:35.983Z,14.25
2019-04-21T15:50:10.168Z,14.78
2019-04-21T15:52:37.965Z,19.07
2019-04-21T15:55:22.947Z,13.93
2019-04-21T15:58:01.083Z,11.97
2019-04-21T16:00:46.833Z,13.15
2019-04-21T16:04:04.309Z,12.98
2019-04-21T16:07:11.943Z,13.58
2019-04-21T16:10:26.204Z,12.65
2019-04-21T16:13:11.792Z,12.70
2019-04-21T16:16:12.770Z,11.40
2019-04-21T16:19:16.355Z,12.47
2019-04-21T16:22:18.797Z,11.95
2019-04-21T16:25:23.172Z,12.60
2019-04-21T16:27:51.043Z,13.00
2019-04-21T16:30:20.086Z,11.50
2019-04-21T16:32:49.886Z,10.08
2019-04-21T16:35:22.115Z,10.48
2019-04-21T16:37:50.923Z,13.78
2019-04-21T16:40:21.364Z,11.60
2019-04-21T16:42:50.126Z,14.15
2019-04-21T16:45:18.982Z,12.15
2019-04-21T16:47:53.350Z,13.45
2019-04-21T16:50:21.545Z,13.28
2019-04-21T16:53:08.254Z,11.10
2019-04-21T16:55:53.319Z,13.88
2019-04-21T16:58:28.920Z,12.15
2019-04-21T17:01:05.128Z,14.63
2019-04-21T17:03:32.603Z,11.68
2019-04-21T17:06:04.644Z,11.73
2019-04-21T17:08:31.831Z,12.58
2019-04-21T17:11:10.764Z,14.33
2019-04-21T17:13:33.583Z,11.45
2019-04-21T17:16:29.879Z,10.23
2019-04-21T17:18:48.244Z,10.98
2019-04-21T17:21:05.055Z,10.32
2019-04-21T17:23:33.626Z,10.20
2019-04-21T17:26:03.390Z,13.03
2019-04-21T17:28:32.039Z,8.53
2019-04-21T17:31:02.361Z,8.28
2019-04-21T17:33:32.351Z,8.93
2019-04-21T17:36:03.001Z,8.23
2019-04-21T17:38:34.158Z,8.15
2019-04-21T17:41:13.869Z,12.25
2019-04-21T17:43:34.693Z,12.65
2019-04-21T17:46:04.856Z,10.50
2019-04-21T17:48:34.672Z,6.83
2019-04-21T17:51:17.320Z,7.20
2019-04-21T17:53:56.931Z,12.80
2019-04-21T17:56:55.217Z,7.85
2019-04-21T17:59:16.394Z,8.70
2019-04-21T18:01:47.409Z,7.22
2019-04-21T18:07:04.849Z,7.60
2019-04-21T18:10:04.753Z,10.85
2019-04-21T18:12:29.211Z,6.50
2019-04-21T18:14:56.782Z,8.18
2019-04-21T18:17:20.450Z,7.72
2019-04-21T18:19:52.424Z,8.85
2019-04-21T18:22:38.536Z,7.72
2019-04-21T18:25:15.354Z,6.87
2019-04-21T18:27:40.592Z,6.95
2019-04-21T18:30:52.465Z,8.40
2019-04-21T18:33:27.440Z,8.85
2019-04-21T18:36:15.825Z,8.25
2019-04-21T18:39:10.365Z,9.08
2019-04-21T18:41:28.767Z,9.35
2019-04-21T18:44:44.387Z,6.87
2019-04-21T18:47:14.759Z,7.35
2019-04-21T18:49:29.349Z,6.65
2019-04-21T18:52:16.817Z,10.72
2019-04-21T18:54:49.165Z,10.08
2019-04-21T18:57:19.546Z,8.48
2019-04-21T18:59:44.008Z,8.98
2019-04-21T19:02:14.972Z,10.53
2019-04-21T19:04:43.111Z,10.65
2019-04-21T19:07:30.611Z,8.00
2019-04-21T19:14:59.342Z,7.65
2019-04-21T19:22:35.983Z,7.65
2019-04-21T19:25:09.951Z,8.93
2019-04-21T19:27:40.242Z,8.13
2019-04-21T19:32:39.038Z,10.00
2019-04-21T19:34:59.882Z,8.30
2019-04-21T19:37:38.945Z,6.95
2019-04-21T19:40:12.087Z,6.45
2019-04-21T19:42:45.559Z,8.40
2019-04-21T19:45:17.653Z,6.33
2019-04-21T19:47:56.681Z,6.12
2019-04-21T19:50:26.493Z,7.90
2019-04-21T19:52:43.748Z,5.47
2019-04-21T19:55:06.606Z,6.40
2019-04-21T19:57:38.892Z,6.10
2019-04-21T20:00:09.593Z,9.68
2019-04-21T20:02:38.503Z,7.22
2019-04-21T20:05:13.000Z,8.25
2019-04-21T20:07:55.348Z,6.35
2019-04-21T20:10:34.964Z,9.48
2019-04-21T20:13:02.858Z,9.25
2019-04-21T20:15:35.855Z,12.63
2019-04-21T20:18:00.273Z,7.10
2019-04-21T20:20:17.279Z,8.08
2019-04-21T20:22:50.316Z,8.50
2019-04-21T20:25:20.895Z,9.18
2019-04-21T20:27:58.140Z,10.13
2019-04-21T20:30:40.859Z,8.88
2019-04-21T20:33:19.836Z,8.70
2019-04-21T20:35:46.831Z,12.90
2019-04-21T20:38:02.282Z,9.28
2019-04-21T20:40:33.373Z,11.63
2019-04-21T20:43:13.473Z,13.58
2019-04-21T20:45:49.455Z,10.25
2019-04-21T20:48:07.261Z,10.58
2019-04-21T20:50:36.451Z,13.53
2019-04-21T20:53:17.635Z,15.08
2019-04-21T20:55:48.605Z,20.12
2019-04-21T20:58:15.091Z,19.50
2019-04-21T21:01:04.120Z,20.17
2019-04-21T21:03:24.700Z,16.62
2019-04-21T21:05:49.939Z,17.73
2019-04-21T21:08:24.641Z,19.82
2019-04-21T21:10:51.222Z,20.32
2019-04-21T21:13:32.192Z,21.85
2019-04-21T21:16:06.197Z,19.60
2019-04-21T21:18:59.582Z,19.98
2019-04-21T21:21:03.404Z,18.40
2019-04-21T21:23:29.147Z,19.02
2019-04-21T21:26:07.081Z,15.63
2019-04-21T21:28:29.044Z,21.93
2019-04-21T21:31:06.003Z,17.75
2019-04-21T21:33:39.489Z,21.45
2019-04-21T21:36:06.999Z,24.52
2019-04-21T21:38:37.545Z,20.55
2019-04-21T21:41:01.293Z,19.07
2019-04-21T21:45:59.058Z,21.95
2019-04-21T21:48:37.979Z,18.15
2019-04-21T21:51:04.398Z,17.07
2019-04-21T21:53:28.863Z,20.90
2019-04-21T21:55:58.517Z,20.50
2019-04-21T21:58:36.455Z,20.60
2019-04-21T22:01:02.968Z,19.50
2019-04-21T22:03:39.093Z,18.85
2019-04-21T22:06:09.934Z,20.25
2019-04-21T22:08:38.942Z,17.42
2019-04-21T22:11:08.895Z,18.15
2019-04-21T22:13:49.017Z,21.33
2019-04-21T22:16:14.068Z,16.25
2019-04-21T22:19:03.505Z,19.37
2019-04-21T22:21:26.609Z,19.37
2019-04-21T22:23:51.645Z,18.23
2019-04-21T22:26:13.300Z,17.67
2019-04-21T22:28:43.560Z,22.73
2019-04-21T22:31:17.066Z,18.67
2019-04-21T22:33:48.408Z,18.73
2019-04-21T22:36:26.734Z,22.90
2019-04-21T22:39:06.381Z,22.60
2019-04-21T22:41:28.157Z,30.08
2019-04-21T22:43:51.143Z,32.05
2019-04-21T22:46:16.329Z,30.97
2019-04-21T22:48:52.182Z,35.68
2019-04-21T22:51:23.763Z,36.80
2019-04-21T22:53:48.842Z,32.60
2019-04-21T22:56:23.614Z,33.90
2019-04-21T22:58:48.280Z,33.15
2019-04-21T23:01:24.194Z,27.00
2019-04-21T23:03:54.702Z,29.20
2019-04-21T23:06:25.065Z,27.82
2019-04-21T23:08:55.091Z,30.95
2019-04-21T23:11:34.942Z,36.60
2019-04-21T23:16:34.945Z,32.58
2019-04-21T23:19:15.892Z,35.28
2019-04-21T23:21:49.731Z,31.48
2019-04-21T23:24:26.210Z,31.85
2019-04-21T23:26:48.736Z,35.15
2019-04-21T23:29:30.714Z,31.55
2019-04-21T23:31:50.275Z,33.78
2019-04-21T23:34:06.426Z,30.68
2019-04-21T23:36:37.579Z,36.58
2019-04-21T23:39:15.990Z,32.42
2019-04-21T23:41:42.341Z,33.25
2019-04-21T23:44:12.207Z,37.10
2019-04-21T23:46:40.497Z,34.60
2019-04-21T23:49:22.213Z,33.38
2019-04-21T23:51:47.703Z,30.80
2019-04-21T23:54:11.392Z,33.67
2019-04-21T23:56:44.005Z,32.13
2019-04-21T23:59:16.047Z,32.95
